sensor_id;sensor_type;location;lat;lon;timestamp;P1;durP1;ratioP1;P2;durP2;ratioP2
22963;SDS011;11648;49.306;6.934;2023-04-09T00:01:05;11.93;;;8.40;;
22963;SDS011;11648;49.306;6.934;2023-04-09T00:03:33;10.70;;;7.60;;
22963;SDS011;11648;49.306;6.934;2023-04-09T00:06:01;10.17;;;7.20;;
22963;SDS011;11648;49.306;6.934;2023-04-09T00:08:28;13.33;;;8.30;;
22963;SDS011;11648;49.306;6.934;2023-04-09T00:10:56;12.67;;;9.40;;
22963;SDS011;11648;49.306;6.934;2023-04-09T00:13:23;13.80;;;10.70;;
22963;SDS011;11648;49.306;6.934;2023-04-09T00:16:03;13.77;;;10.00;;
22963;SDS011;11648;49.306;6.934;2023-04-09T00:18:30;13.73;;;9.57;;
22963;SDS011;11648;49.306;6.934;2023-04-09T00:20:57;12.23;;;9.93;;
22963;SDS011;11648;49.306;6.934;2023-04-09T00:23:24;13.50;;;9.30;;
22963;SDS011;11648;49.306;6.934;2023-04-09T00:25:51;12.47;;;8.47;;
22963;SDS011;11648;49.306;6.934;2023-04-09T00:28:17;11.47;;;8.70;;
22963;SDS011;11648;49.306;6.934;2023-04-09T00:30:44;11.63;;;9.10;;
22963;SDS011;11648;49.306;6.934;2023-04-09T00:33:14;11.13;;;8.20;;
22963;SDS011;11648;49.306;6.934;2023-04-09T00:35:41;10.90;;;8.27;;
22963;SDS011;11648;49.306;6.934;2023-04-09T00:38:08;12.67;;;8.63;;
22963;SDS011;11648;49.306;6.934;2023-04-09T00:40:34;12.57;;;8.50;;
22963;SDS011;11648;49.306;6.934;2023-04-09T00:43:01;11.30;;;7.53;;
22963;SDS011;11648;49.306;6.934;2023-04-09T00:45:28;12.57;;;8.00;;
22963;SDS011;11648;49.306;6.934;2023-04-09T00:47:55;11.20;;;7.87;;
22963;SDS011;11648;49.306;6.934;2023-04-09T00:50:22;10.27;;;7.90;;
22963;SDS011;11648;49.306;6.934;2023-04-09T00:52:49;11.60;;;7.80;;
22963;SDS011;11648;49.306;6.934;2023-04-09T00:55:17;12.30;;;8.43;;
22963;SDS011;11648;49.306;6.934;2023-04-09T00:57:44;12.03;;;8.37;;
22963;SDS011;11648;49.306;6.934;2023-04-09T01:00:11;10.63;;;7.67;;
22963;SDS011;11648;49.306;6.934;2023-04-09T01:02:38;10.67;;;7.50;;
22963;SDS011;11648;49.306;6.934;2023-04-09T01:05:06;11.07;;;8.20;;
22963;SDS011;11648;49.306;6.934;2023-04-09T01:10:16;12.27;;;8.47;;
22963;SDS011;11648;49.306;6.934;2023-04-09T01:13:21;11.43;;;8.60;;
22963;SDS011;11648;49.306;6.934;2023-04-09T01:15:56;12.20;;;9.00;;
22963;SDS011;11648;49.306;6.934;2023-04-09T01:18:37;13.93;;;9.80;;
22963;SDS011;11648;49.306;6.934;2023-04-09T01:29:51;13.37;;;9.17;;
22963;SDS011;11648;49.306;6.934;2023-04-09T01:32:20;12.23;;;8.80;;
22963;SDS011;11648;49.306;6.934;2023-04-09T01:34:48;12.47;;;8.93;;
22963;SDS011;11648;49.306;6.934;2023-04-09T01:37:16;12.10;;;8.60;;
22963;SDS011;11648;49.306;6.934;2023-04-09T01:39:44;11.70;;;7.33;;
22963;SDS011;11648;49.306;6.934;2023-04-09T01:42:12;11.17;;;7.40;;
22963;SDS011;11648;49.306;6.934;2023-04-09T01:44:41;13.03;;;7.47;;
22963;SDS011;11648;49.306;6.934;2023-04-09T01:47:09;12.10;;;7.60;;
22963;SDS011;11648;49.306;6.934;2023-04-09T01:49:37;11.43;;;7.33;;
22963;SDS011;11648;49.306;6.934;2023-04-09T01:52:06;10.33;;;7.77;;
22963;SDS011;11648;49.306;6.934;2023-04-09T01:54:34;11.57;;;7.50;;
22963;SDS011;11648;49.306;6.934;2023-04-09T01:57:01;11.60;;;7.73;;
22963;SDS011;11648;49.306;6.934;2023-04-09T01:59:28;11.23;;;7.30;;
22963;SDS011;11648;49.306;6.934;2023-04-09T02:02:05;11.63;;;8.03;;
22963;SDS011;11648;49.306;6.934;2023-04-09T02:04:42;11.93;;;7.20;;
22963;SDS011;11648;49.306;6.934;2023-04-09T02:07:17;10.83;;;7.30;;
22963;SDS011;11648;49.306;6.934;2023-04-09T02:09:57;10.30;;;7.07;;
22963;SDS011;11648;49.306;6.934;2023-04-09T02:12:27;9.77;;;6.83;;
22963;SDS011;11648;49.306;6.934;2023-04-09T02:14:57;9.17;;;6.73;;
22963;SDS011;11648;49.306;6.934;2023-04-09T02:17:26;11.83;;;6.97;;
22963;SDS011;11648;49.306;6.934;2023-04-09T02:19:53;10.40;;;6.57;;
22963;SDS011;11648;49.306;6.934;2023-04-09T02:22:20;9.63;;;6.80;;
22963;SDS011;11648;49.306;6.934;2023-04-09T02:24:47;10.27;;;7.00;;
22963;SDS011;11648;49.306;6.934;2023-04-09T02:27:13;11.27;;;7.07;;
22963;SDS011;11648;49.306;6.934;2023-04-09T02:29:40;10.93;;;7.50;;
22963;SDS011;11648;49.306;6.934;2023-04-09T02:32:07;10.50;;;7.37;;
22963;SDS011;11648;49.306;6.934;2023-04-09T02:34:34;9.83;;;7.23;;
22963;SDS011;11648;49.306;6.934;2023-04-09T02:37:01;12.00;;;8.27;;
22963;SDS011;11648;49.306;6.934;2023-04-09T02:39:28;10.73;;;7.33;;
22963;SDS011;11648;49.306;6.934;2023-04-09T02:41:55;10.23;;;7.33;;
22963;SDS011;11648;49.306;6.934;2023-04-09T02:44:21;11.57;;;7.77;;
22963;SDS011;11648;49.306;6.934;2023-04-09T02:46:49;9.10;;;7.10;;
22963;SDS011;11648;49.306;6.934;2023-04-09T02:49:16;10.40;;;7.23;;
22963;SDS011;11648;49.306;6.934;2023-04-09T02:51:43;11.47;;;7.60;;
22963;SDS011;11648;49.306;6.934;2023-04-09T02:54:10;10.43;;;7.27;;
22963;SDS011;11648;49.306;6.934;2023-04-09T02:56:37;10.60;;;7.80;;
22963;SDS011;11648;49.306;6.934;2023-04-09T02:59:03;11.20;;;7.43;;
22963;SDS011;11648;49.306;6.934;2023-04-09T03:01:30;10.23;;;7.23;;
22963;SDS011;11648;49.306;6.934;2023-04-09T03:03:57;10.50;;;7.27;;
22963;SDS011;11648;49.306;6.934;2023-04-09T03:06:24;11.03;;;8.27;;
22963;SDS011;11648;49.306;6.934;2023-04-09T03:08:51;9.77;;;6.80;;
22963;SDS011;11648;49.306;6.934;2023-04-09T03:11:18;10.20;;;7.13;;
22963;SDS011;11648;49.306;6.934;2023-04-09T03:13:45;10.60;;;7.30;;
22963;SDS011;11648;49.306;6.934;2023-04-09T03:16:12;9.30;;;7.10;;
22963;SDS011;11648;49.306;6.934;2023-04-09T03:18:39;10.27;;;7.03;;
22963;SDS011;11648;49.306;6.934;2023-04-09T03:21:06;9.57;;;6.53;;
22963;SDS011;11648;49.306;6.934;2023-04-09T03:23:36;12.40;;;7.10;;
22963;SDS011;11648;49.306;6.934;2023-04-09T03:26:05;10.20;;;6.93;;
22963;SDS011;11648;49.306;6.934;2023-04-09T03:28:42;10.07;;;6.93;;
22963;SDS011;11648;49.306;6.934;2023-04-09T03:31:09;11.23;;;7.43;;
22963;SDS011;11648;49.306;6.934;2023-04-09T03:33:38;12.27;;;7.30;;
22963;SDS011;11648;49.306;6.934;2023-04-09T03:36:06;10.53;;;7.40;;
22963;SDS011;11648;49.306;6.934;2023-04-09T03:38:53;12.03;;;7.50;;
22963;SDS011;11648;49.306;6.934;2023-04-09T03:41:41;11.00;;;7.13;;
22963;SDS011;11648;49.306;6.934;2023-04-09T03:44:12;11.00;;;7.30;;
22963;SDS011;11648;49.306;6.934;2023-04-09T03:46:54;12.53;;;7.73;;
22963;SDS011;11648;49.306;6.934;2023-04-09T03:49:22;10.83;;;7.40;;
22963;SDS011;11648;49.306;6.934;2023-04-09T03:51:48;10.83;;;7.20;;
22963;SDS011;11648;49.306;6.934;2023-04-09T03:54:15;9.87;;;7.10;;
22963;SDS011;11648;49.306;6.934;2023-04-09T03:56:43;10.87;;;7.30;;
22963;SDS011;11648;49.306;6.934;2023-04-09T03:59:12;12.77;;;7.87;;
22963;SDS011;11648;49.306;6.934;2023-04-09T04:01:42;11.83;;;7.80;;
22963;SDS011;11648;49.306;6.934;2023-04-09T04:04:09;10.70;;;7.30;;
22963;SDS011;11648;49.306;6.934;2023-04-09T04:06:51;10.47;;;7.07;;
22963;SDS011;11648;49.306;6.934;2023-04-09T04:09:30;11.07;;;7.30;;
22963;SDS011;11648;49.306;6.934;2023-04-09T04:12:02;12.70;;;7.63;;
22963;SDS011;11648;49.306;6.934;2023-04-09T04:14:47;10.97;;;7.33;;
22963;SDS011;11648;49.306;6.934;2023-04-09T04:17:28;11.80;;;6.97;;
22963;SDS011;11648;49.306;6.934;2023-04-09T04:19:56;11.17;;;7.47;;
22963;SDS011;11648;49.306;6.934;2023-04-09T04:22:23;10.70;;;7.27;;
22963;SDS011;11648;49.306;6.934;2023-04-09T04:24:54;10.83;;;6.97;;
22963;SDS011;11648;49.306;6.934;2023-04-09T04:27:21;15.20;;;7.47;;
22963;SDS011;11648;49.306;6.934;2023-04-09T04:29:49;10.70;;;7.57;;
22963;SDS011;11648;49.306;6.934;2023-04-09T04:32:30;10.80;;;7.17;;
22963;SDS011;11648;49.306;6.934;2023-04-09T04:35:01;10.03;;;7.03;;
22963;SDS011;11648;49.306;6.934;2023-04-09T04:37:28;10.90;;;7.23;;
22963;SDS011;11648;49.306;6.934;2023-04-09T04:39:59;10.03;;;7.10;;
22963;SDS011;11648;49.306;6.934;2023-04-09T04:42:28;10.80;;;7.53;;
22963;SDS011;11648;49.306;6.934;2023-04-09T04:44:56;9.40;;;6.80;;
22963;SDS011;11648;49.306;6.934;2023-04-09T04:47:36;10.63;;;7.23;;
22963;SDS011;11648;49.306;6.934;2023-04-09T04:50:03;13.57;;;8.80;;
22963;SDS011;11648;49.306;6.934;2023-04-09T04:52:39;11.17;;;7.87;;
22963;SDS011;11648;49.306;6.934;2023-04-09T04:55:07;13.87;;;8.77;;
22963;SDS011;11648;49.306;6.934;2023-04-09T04:57:34;14.37;;;9.00;;
22963;SDS011;11648;49.306;6.934;2023-04-09T05:00:01;11.07;;;7.87;;
22963;SDS011;11648;49.306;6.934;2023-04-09T05:02:28;12.27;;;7.97;;
22963;SDS011;11648;49.306;6.934;2023-04-09T05:05:15;11.70;;;7.63;;
22963;SDS011;11648;49.306;6.934;2023-04-09T05:07:48;11.80;;;8.20;;
22963;SDS011;11648;49.306;6.934;2023-04-09T05:10:14;13.70;;;8.50;;
22963;SDS011;11648;49.306;6.934;2023-04-09T05:12:43;11.97;;;8.10;;
22963;SDS011;11648;49.306;6.934;2023-04-09T05:15:12;12.67;;;8.47;;
22963;SDS011;11648;49.306;6.934;2023-04-09T05:17:42;13.03;;;8.03;;
22963;SDS011;11648;49.306;6.934;2023-04-09T05:20:10;13.90;;;8.27;;
22963;SDS011;11648;49.306;6.934;2023-04-09T05:22:46;12.77;;;8.00;;
22963;SDS011;11648;49.306;6.934;2023-04-09T05:25:14;11.20;;;7.70;;
22963;SDS011;11648;49.306;6.934;2023-04-09T05:27:42;10.80;;;7.90;;
22963;SDS011;11648;49.306;6.934;2023-04-09T05:30:09;11.67;;;7.73;;
22963;SDS011;11648;49.306;6.934;2023-04-09T05:32:36;11.33;;;8.20;;
22963;SDS011;11648;49.306;6.934;2023-04-09T05:35:04;11.70;;;8.07;;
22963;SDS011;11648;49.306;6.934;2023-04-09T05:37:35;12.83;;;8.73;;
22963;SDS011;11648;49.306;6.934;2023-04-09T05:40:02;16.17;;;9.80;;
22963;SDS011;11648;49.306;6.934;2023-04-09T05:42:29;14.10;;;8.73;;
22963;SDS011;11648;49.306;6.934;2023-04-09T05:45:01;14.33;;;8.67;;
22963;SDS011;11648;49.306;6.934;2023-04-09T05:47:28;11.47;;;7.90;;
22963;SDS011;11648;49.306;6.934;2023-04-09T05:50:01;11.43;;;7.30;;
22963;SDS011;11648;49.306;6.934;2023-04-09T05:52:28;11.57;;;7.70;;
22963;SDS011;11648;49.306;6.934;2023-04-09T05:54:56;10.20;;;6.77;;
22963;SDS011;11648;49.306;6.934;2023-04-09T05:57:31;9.53;;;6.70;;
22963;SDS011;11648;49.306;6.934;2023-04-09T06:00:01;11.07;;;6.47;;
22963;SDS011;11648;49.306;6.934;2023-04-09T06:02:41;11.33;;;7.60;;
22963;SDS011;11648;49.306;6.934;2023-04-09T06:05:09;10.70;;;6.93;;
22963;SDS011;11648;49.306;6.934;2023-04-09T06:07:35;9.27;;;6.53;;
22963;SDS011;11648;49.306;6.934;2023-04-09T06:10:02;9.20;;;6.87;;
22963;SDS011;11648;49.306;6.934;2023-04-09T06:12:29;9.20;;;7.00;;
22963;SDS011;11648;49.306;6.934;2023-04-09T06:14:56;8.90;;;6.53;;
22963;SDS011;11648;49.306;6.934;2023-04-09T06:17:22;9.20;;;7.00;;
22963;SDS011;11648;49.306;6.934;2023-04-09T06:19:49;10.73;;;7.33;;
22963;SDS011;11648;49.306;6.934;2023-04-09T06:22:16;9.77;;;7.13;;
22963;SDS011;11648;49.306;6.934;2023-04-09T06:24:43;9.27;;;7.13;;
22963;SDS011;11648;49.306;6.934;2023-04-09T06:27:09;9.97;;;7.33;;
22963;SDS011;11648;49.306;6.934;2023-04-09T06:29:36;8.90;;;6.90;;
22963;SDS011;11648;49.306;6.934;2023-04-09T06:32:03;9.33;;;7.20;;
22963;SDS011;11648;49.306;6.934;2023-04-09T06:34:31;8.50;;;6.63;;
22963;SDS011;11648;49.306;6.934;2023-04-09T06:36:58;7.87;;;6.30;;
22963;SDS011;11648;49.306;6.934;2023-04-09T06:39:25;8.47;;;6.90;;
22963;SDS011;11648;49.306;6.934;2023-04-09T06:41:52;10.70;;;7.60;;
22963;SDS011;11648;49.306;6.934;2023-04-09T06:44:37;8.60;;;6.67;;
22963;SDS011;11648;49.306;6.934;2023-04-09T06:47:04;9.00;;;7.13;;
22963;SDS011;11648;49.306;6.934;2023-04-09T06:49:30;8.27;;;7.37;;
22963;SDS011;11648;49.306;6.934;2023-04-09T06:51:57;8.87;;;7.13;;
22963;SDS011;11648;49.306;6.934;2023-04-09T06:54:24;8.17;;;7.00;;
22963;SDS011;11648;49.306;6.934;2023-04-09T06:56:50;8.13;;;7.17;;
22963;SDS011;11648;49.306;6.934;2023-04-09T06:59:17;8.10;;;6.73;;
22963;SDS011;11648;49.306;6.934;2023-04-09T07:01:44;9.47;;;7.43;;
22963;SDS011;11648;49.306;6.934;2023-04-09T07:04:11;9.07;;;7.73;;
22963;SDS011;11648;49.306;6.934;2023-04-09T07:06:38;8.87;;;7.23;;
22963;SDS011;11648;49.306;6.934;2023-04-09T07:09:05;8.43;;;7.53;;
22963;SDS011;11648;49.306;6.934;2023-04-09T07:11:32;9.40;;;7.57;;
22963;SDS011;11648;49.306;6.934;2023-04-09T07:13:59;8.53;;;7.63;;
22963;SDS011;11648;49.306;6.934;2023-04-09T07:16:26;8.00;;;7.20;;
22963;SDS011;11648;49.306;6.934;2023-04-09T07:18:53;7.97;;;7.18;;
22963;SDS011;11648;49.306;6.934;2023-04-09T07:21:19;8.47;;;7.57;;
22963;SDS011;11648;49.306;6.934;2023-04-09T07:23:46;7.97;;;7.10;;
22963;SDS011;11648;49.306;6.934;2023-04-09T07:26:13;8.83;;;7.60;;
22963;SDS011;11648;49.306;6.934;2023-04-09T07:28:40;9.13;;;7.73;;
22963;SDS011;11648;49.306;6.934;2023-04-09T07:31:07;9.83;;;7.70;;
22963;SDS011;11648;49.306;6.934;2023-04-09T07:33:34;9.37;;;7.90;;
22963;SDS011;11648;49.306;6.934;2023-04-09T07:36:01;8.85;;;7.68;;
22963;SDS011;11648;49.306;6.934;2023-04-09T07:38:28;9.07;;;7.30;;
22963;SDS011;11648;49.306;6.934;2023-04-09T07:40:55;8.95;;;7.70;;
22963;SDS011;11648;49.306;6.934;2023-04-09T07:43:22;8.82;;;7.93;;
22963;SDS011;11648;49.306;6.934;2023-04-09T07:45:49;8.80;;;7.90;;
22963;SDS011;11648;49.306;6.934;2023-04-09T07:48:17;9.07;;;8.00;;
22963;SDS011;11648;49.306;6.934;2023-04-09T07:50:43;9.80;;;8.65;;
22963;SDS011;11648;49.306;6.934;2023-04-09T07:53:10;9.40;;;8.40;;
22963;SDS011;11648;49.306;6.934;2023-04-09T07:55:38;9.07;;;8.18;;
22963;SDS011;11648;49.306;6.934;2023-04-09T07:58:05;10.07;;;9.07;;
22963;SDS011;11648;49.306;6.934;2023-04-09T08:00:32;10.40;;;9.02;;
22963;SDS011;11648;49.306;6.934;2023-04-09T08:02:59;9.80;;;8.80;;
22963;SDS011;11648;49.306;6.934;2023-04-09T08:05:27;9.00;;;8.10;;
22963;SDS011;11648;49.306;6.934;2023-04-09T08:07:54;9.77;;;8.77;;
22963;SDS011;11648;49.306;6.934;2023-04-09T08:10:20;9.25;;;8.35;;
22963;SDS011;11648;49.306;6.934;2023-04-09T08:12:47;9.32;;;8.43;;
22963;SDS011;11648;49.306;6.934;2023-04-09T08:15:15;9.15;;;8.00;;
22963;SDS011;11648;49.306;6.934;2023-04-09T08:17:42;8.80;;;7.90;;
22963;SDS011;11648;49.306;6.934;2023-04-09T08:20:08;8.02;;;7.22;;
22963;SDS011;11648;49.306;6.934;2023-04-09T08:22:36;8.88;;;7.70;;
22963;SDS011;11648;49.306;6.934;2023-04-09T08:25:03;8.90;;;8.05;;
22963;SDS011;11648;49.306;6.934;2023-04-09T08:27:30;8.18;;;7.38;;
22963;SDS011;11648;49.306;6.934;2023-04-09T08:29:58;8.45;;;7.63;;
22963;SDS011;11648;49.306;6.934;2023-04-09T08:32:24;8.95;;;8.05;;
22963;SDS011;11648;49.306;6.934;2023-04-09T08:34:52;8.07;;;7.28;;
22963;SDS011;11648;49.306;6.934;2023-04-09T08:37:19;8.48;;;7.57;;
22963;SDS011;11648;49.306;6.934;2023-04-09T08:39:46;8.10;;;7.30;;
22963;SDS011;11648;49.306;6.934;2023-04-09T08:42:12;8.15;;;7.40;;
22963;SDS011;11648;49.306;6.934;2023-04-09T08:44:40;7.53;;;6.80;;
22963;SDS011;11648;49.306;6.934;2023-04-09T08:47:07;7.22;;;6.53;;
22963;SDS011;11648;49.306;6.934;2023-04-09T08:49:38;7.10;;;6.18;;
22963;SDS011;11648;49.306;6.934;2023-04-09T08:52:06;6.60;;;6.00;;
22963;SDS011;11648;49.306;6.934;2023-04-09T08:54:33;6.75;;;6.07;;
22963;SDS011;11648;49.306;6.934;2023-04-09T08:57:03;6.95;;;5.88;;
22963;SDS011;11648;49.306;6.934;2023-04-09T08:59:30;6.05;;;5.45;;
22963;SDS011;11648;49.306;6.934;2023-04-09T09:02:08;5.38;;;4.88;;
22963;SDS011;11648;49.306;6.934;2023-04-09T09:04:44;6.10;;;5.32;;
22963;SDS011;11648;49.306;6.934;2023-04-09T09:07:12;5.13;;;4.63;;
22963;SDS011;11648;49.306;6.934;2023-04-09T09:12:36;4.80;;;4.30;;
22963;SDS011;11648;49.306;6.934;2023-04-09T09:15:05;4.97;;;4.30;;
22963;SDS011;11648;49.306;6.934;2023-04-09T09:17:52;5.63;;;5.05;;
22963;SDS011;11648;49.306;6.934;2023-04-09T09:20:20;5.00;;;4.45;;
22963;SDS011;11648;49.306;6.934;2023-04-09T09:22:48;4.85;;;4.38;;
22963;SDS011;11648;49.306;6.934;2023-04-09T09:25:20;4.90;;;4.50;;
22963;SDS011;11648;49.306;6.934;2023-04-09T09:27:52;4.55;;;3.75;;
22963;SDS011;11648;49.306;6.934;2023-04-09T09:30:20;4.30;;;3.90;;
22963;SDS011;11648;49.306;6.934;2023-04-09T09:33:10;4.30;;;3.90;;
22963;SDS011;11648;49.306;6.934;2023-04-09T09:35:47;4.43;;;3.85;;
22963;SDS011;11648;49.306;6.934;2023-04-09T09:38:19;4.30;;;3.90;;
22963;SDS011;11648;49.306;6.934;2023-04-09T09:40:48;4.03;;;3.63;;
22963;SDS011;11648;49.306;6.934;2023-04-09T09:43:15;5.07;;;3.95;;
22963;SDS011;11648;49.306;6.934;2023-04-09T09:45:42;4.20;;;3.80;;
22963;SDS011;11648;49.306;6.934;2023-04-09T09:48:10;4.85;;;4.13;;
22963;SDS011;11648;49.306;6.934;2023-04-09T09:50:38;4.72;;;4.22;;
22963;SDS011;11648;49.306;6.934;2023-04-09T09:53:09;4.90;;;3.95;;
22963;SDS011;11648;49.306;6.934;2023-04-09T09:55:37;4.30;;;3.65;;
22963;SDS011;11648;49.306;6.934;2023-04-09T10:00:45;3.95;;;3.55;;
22963;SDS011;11648;49.306;6.934;2023-04-09T10:03:14;3.97;;;3.58;;
22963;SDS011;11648;49.306;6.934;2023-04-09T10:05:45;3.75;;;3.38;;
22963;SDS011;11648;49.306;6.934;2023-04-09T10:08:14;3.53;;;3.03;;
22963;SDS011;11648;49.306;6.934;2023-04-09T10:10:42;4.15;;;3.75;;
22963;SDS011;11648;49.306;6.934;2023-04-09T10:13:15;4.03;;;3.42;;
22963;SDS011;11648;49.306;6.934;2023-04-09T10:15:49;3.47;;;3.17;;
22963;SDS011;11648;49.306;6.934;2023-04-09T10:18:17;3.92;;;3.53;;
22963;SDS011;11648;49.306;6.934;2023-04-09T10:20:48;4.10;;;3.40;;
22963;SDS011;11648;49.306;6.934;2023-04-09T10:23:26;4.30;;;3.90;;
22963;SDS011;11648;49.306;6.934;2023-04-09T10:25:59;3.90;;;3.50;;
22963;SDS011;11648;49.306;6.934;2023-04-09T10:28:26;4.45;;;3.60;;
22963;SDS011;11648;49.306;6.934;2023-04-09T10:30:53;4.55;;;3.25;;
22963;SDS011;11648;49.306;6.934;2023-04-09T10:33:21;3.67;;;3.20;;
22963;SDS011;11648;49.306;6.934;2023-04-09T10:35:52;4.82;;;3.33;;
22963;SDS011;11648;49.306;6.934;2023-04-09T10:38:34;3.92;;;3.35;;
22963;SDS011;11648;49.306;6.934;2023-04-09T10:41:07;4.37;;;3.53;;
22963;SDS011;11648;49.306;6.934;2023-04-09T10:43:53;4.47;;;4.00;;
22963;SDS011;11648;49.306;6.934;2023-04-09T10:46:35;4.20;;;3.53;;
22963;SDS011;11648;49.306;6.934;2023-04-09T10:51:46;4.53;;;3.50;;
22963;SDS011;11648;49.306;6.934;2023-04-09T10:59:37;4.47;;;3.47;;
22963;SDS011;11648;49.306;6.934;2023-04-09T11:02:07;3.80;;;3.20;;
22963;SDS011;11648;49.306;6.934;2023-04-09T11:05:14;5.37;;;3.80;;
22963;SDS011;11648;49.306;6.934;2023-04-09T11:07:33;5.27;;;3.87;;
22963;SDS011;11648;49.306;6.934;2023-04-09T11:10:04;4.63;;;3.60;;
22963;SDS011;11648;49.306;6.934;2023-04-09T11:12:32;4.47;;;3.40;;
22963;SDS011;11648;49.306;6.934;2023-04-09T11:14:59;3.45;;;3.03;;
22963;SDS011;11648;49.306;6.934;2023-04-09T11:17:26;4.30;;;3.50;;
22963;SDS011;11648;49.306;6.934;2023-04-09T11:19:53;4.82;;;3.50;;
22963;SDS011;11648;49.306;6.934;2023-04-09T11:22:20;4.05;;;3.35;;
22963;SDS011;11648;49.306;6.934;2023-04-09T11:24:47;3.90;;;3.50;;
22963;SDS011;11648;49.306;6.934;2023-04-09T11:27:16;3.85;;;3.38;;
22963;SDS011;11648;49.306;6.934;2023-04-09T11:29:47;3.70;;;3.30;;
22963;SDS011;11648;49.306;6.934;2023-04-09T11:32:13;3.97;;;3.10;;
22963;SDS011;11648;49.306;6.934;2023-04-09T11:34:40;3.63;;;3.05;;
22963;SDS011;11648;49.306;6.934;2023-04-09T11:37:12;5.13;;;3.20;;
22963;SDS011;11648;49.306;6.934;2023-04-09T11:39:42;4.10;;;3.70;;
22963;SDS011;11648;49.306;6.934;2023-04-09T11:42:16;4.00;;;3.53;;
22963;SDS011;11648;49.306;6.934;2023-04-09T11:44:46;3.80;;;3.30;;
22963;SDS011;11648;49.306;6.934;2023-04-09T11:47:14;3.58;;;3.00;;
22963;SDS011;11648;49.306;6.934;2023-04-09T11:49:43;3.58;;;3.00;;
22963;SDS011;11648;49.306;6.934;2023-04-09T11:52:12;3.72;;;3.08;;
22963;SDS011;11648;49.306;6.934;2023-04-09T11:54:46;4.00;;;2.95;;
22963;SDS011;11648;49.306;6.934;2023-04-09T11:57:14;4.18;;;3.20;;
22963;SDS011;11648;49.306;6.934;2023-04-09T11:59:41;3.03;;;2.60;;
22963;SDS011;11648;49.306;6.934;2023-04-09T12:02:08;3.20;;;2.90;;
22963;SDS011;11648;49.306;6.934;2023-04-09T12:04:35;4.03;;;3.13;;
22963;SDS011;11648;49.306;6.934;2023-04-09T12:07:02;3.65;;;2.80;;
22963;SDS011;11648;49.306;6.934;2023-04-09T12:09:33;3.13;;;2.70;;
22963;SDS011;11648;49.306;6.934;2023-04-09T12:12:11;3.10;;;2.80;;
22963;SDS011;11648;49.306;6.934;2023-04-09T12:14:44;3.35;;;2.75;;
22963;SDS011;11648;49.306;6.934;2023-04-09T12:17:12;3.00;;;2.67;;
22963;SDS011;11648;49.306;6.934;2023-04-09T12:19:39;3.33;;;2.97;;
22963;SDS011;11648;49.306;6.934;2023-04-09T12:22:06;4.43;;;3.47;;
22963;SDS011;11648;49.306;6.934;2023-04-09T12:24:33;3.42;;;2.92;;
22963;SDS011;11648;49.306;6.934;2023-04-09T12:26:59;2.80;;;2.22;;
22963;SDS011;11648;49.306;6.934;2023-04-09T12:29:26;3.08;;;2.38;;
22963;SDS011;11648;49.306;6.934;2023-04-09T12:31:55;3.40;;;2.80;;
22963;SDS011;11648;49.306;6.934;2023-04-09T12:34:22;3.47;;;2.78;;
22963;SDS011;11648;49.306;6.934;2023-04-09T12:36:48;3.20;;;2.50;;
22963;SDS011;11648;49.306;6.934;2023-04-09T12:39:15;3.58;;;3.13;;
22963;SDS011;11648;49.306;6.934;2023-04-09T12:41:42;3.20;;;2.75;;
22963;SDS011;11648;49.306;6.934;2023-04-09T12:44:09;3.58;;;3.13;;
22963;SDS011;11648;49.306;6.934;2023-04-09T12:46:36;3.60;;;3.00;;
22963;SDS011;11648;49.306;6.934;2023-04-09T12:49:03;3.30;;;2.50;;
22963;SDS011;11648;49.306;6.934;2023-04-09T12:51:31;3.47;;;2.70;;
22963;SDS011;11648;49.306;6.934;2023-04-09T12:53:58;3.50;;;2.70;;
22963;SDS011;11648;49.306;6.934;2023-04-09T12:56:24;4.80;;;2.90;;
22963;SDS011;11648;49.306;6.934;2023-04-09T12:58:53;3.90;;;2.93;;
22963;SDS011;11648;49.306;6.934;2023-04-09T13:01:20;3.43;;;2.63;;
22963;SDS011;11648;49.306;6.934;2023-04-09T13:03:47;3.77;;;2.80;;
22963;SDS011;11648;49.306;6.934;2023-04-09T13:06:14;3.10;;;2.50;;
22963;SDS011;11648;49.306;6.934;2023-04-09T13:08:41;3.97;;;2.83;;
22963;SDS011;11648;49.306;6.934;2023-04-09T13:11:08;3.60;;;2.70;;
22963;SDS011;11648;49.306;6.934;2023-04-09T13:13:34;3.07;;;2.60;;
22963;SDS011;11648;49.306;6.934;2023-04-09T13:16:01;3.53;;;2.30;;
22963;SDS011;11648;49.306;6.934;2023-04-09T13:18:28;4.37;;;2.83;;
22963;SDS011;11648;49.306;6.934;2023-04-09T13:20:55;3.20;;;2.40;;
22963;SDS011;11648;49.306;6.934;2023-04-09T13:23:22;3.60;;;2.57;;
22963;SDS011;11648;49.306;6.934;2023-04-09T13:25:48;3.40;;;2.53;;
22963;SDS011;11648;49.306;6.934;2023-04-09T13:28:15;3.87;;;2.83;;
22963;SDS011;11648;49.306;6.934;2023-04-09T13:30:42;3.20;;;2.50;;
22963;SDS011;11648;49.306;6.934;2023-04-09T13:33:09;3.83;;;3.00;;
22963;SDS011;11648;49.306;6.934;2023-04-09T13:35:36;3.57;;;2.67;;
22963;SDS011;11648;49.306;6.934;2023-04-09T13:38:02;2.73;;;2.10;;
22963;SDS011;11648;49.306;6.934;2023-04-09T13:40:29;3.77;;;2.80;;
22963;SDS011;11648;49.306;6.934;2023-04-09T13:42:56;3.17;;;2.37;;
22963;SDS011;11648;49.306;6.934;2023-04-09T13:45:23;3.73;;;2.50;;
22963;SDS011;11648;49.306;6.934;2023-04-09T13:47:49;3.13;;;2.40;;
22963;SDS011;11648;49.306;6.934;2023-04-09T13:50:16;3.47;;;2.77;;
22963;SDS011;11648;49.306;6.934;2023-04-09T13:52:43;3.67;;;2.97;;
22963;SDS011;11648;49.306;6.934;2023-04-09T13:55:10;3.77;;;2.90;;
22963;SDS011;11648;49.306;6.934;2023-04-09T13:57:37;3.90;;;2.83;;
22963;SDS011;11648;49.306;6.934;2023-04-09T14:00:04;3.50;;;2.47;;
22963;SDS011;11648;49.306;6.934;2023-04-09T14:02:32;3.20;;;2.20;;
22963;SDS011;11648;49.306;6.934;2023-04-09T14:04:59;3.93;;;2.40;;
22963;SDS011;11648;49.306;6.934;2023-04-09T14:07:28;3.40;;;2.43;;
22963;SDS011;11648;49.306;6.934;2023-04-09T14:09:55;3.67;;;2.83;;
22963;SDS011;11648;49.306;6.934;2023-04-09T14:12:21;3.93;;;2.90;;
22963;SDS011;11648;49.306;6.934;2023-04-09T14:14:48;4.13;;;2.77;;
22963;SDS011;11648;49.306;6.934;2023-04-09T14:17:15;3.73;;;2.90;;
22963;SDS011;11648;49.306;6.934;2023-04-09T14:19:42;3.87;;;2.83;;
22963;SDS011;11648;49.306;6.934;2023-04-09T14:22:08;3.63;;;2.73;;
22963;SDS011;11648;49.306;6.934;2023-04-09T14:24:36;3.10;;;2.50;;
22963;SDS011;11648;49.306;6.934;2023-04-09T14:27:06;4.13;;;2.87;;
22963;SDS011;11648;49.306;6.934;2023-04-09T14:29:33;4.33;;;2.80;;
22963;SDS011;11648;49.306;6.934;2023-04-09T14:32:00;3.73;;;2.83;;
22963;SDS011;11648;49.306;6.934;2023-04-09T14:34:30;3.83;;;2.80;;
22963;SDS011;11648;49.306;6.934;2023-04-09T14:36:57;3.03;;;2.50;;
22963;SDS011;11648;49.306;6.934;2023-04-09T14:39:24;4.07;;;2.80;;
22963;SDS011;11648;49.306;6.934;2023-04-09T14:41:51;4.00;;;3.03;;
22963;SDS011;11648;49.306;6.934;2023-04-09T14:44:18;5.40;;;2.90;;
22963;SDS011;11648;49.306;6.934;2023-04-09T14:46:44;3.80;;;3.00;;
22963;SDS011;11648;49.306;6.934;2023-04-09T14:49:11;4.30;;;2.80;;
22963;SDS011;11648;49.306;6.934;2023-04-09T14:51:38;5.03;;;3.03;;
22963;SDS011;11648;49.306;6.934;2023-04-09T14:54:05;3.93;;;3.00;;
22963;SDS011;11648;49.306;6.934;2023-04-09T14:56:32;4.20;;;3.30;;
22963;SDS011;11648;49.306;6.934;2023-04-09T14:58:59;3.73;;;3.23;;
22963;SDS011;11648;49.306;6.934;2023-04-09T15:01:26;4.77;;;3.43;;
22963;SDS011;11648;49.306;6.934;2023-04-09T15:03:53;4.20;;;3.23;;
22963;SDS011;11648;49.306;6.934;2023-04-09T15:06:20;4.60;;;3.63;;
22963;SDS011;11648;49.306;6.934;2023-04-09T15:08:47;4.30;;;3.53;;
22963;SDS011;11648;49.306;6.934;2023-04-09T15:11:14;4.93;;;3.83;;
22963;SDS011;11648;49.306;6.934;2023-04-09T15:13:42;5.40;;;3.83;;
22963;SDS011;11648;49.306;6.934;2023-04-09T15:16:09;4.73;;;3.57;;
22963;SDS011;11648;49.306;6.934;2023-04-09T15:18:35;4.50;;;3.60;;